sensor_id;sensor_type;location;lat;lon;timestamp;temperature;humidity
17172;DHT22;8701;50.150;8.756;2022-08-19T00:03:11;22.50;99.90
17172;DHT22;8701;50.150;8.756;2022-08-19T00:07:13;22.50;99.90
17172;DHT22;8701;50.150;8.756;2022-08-19T00:11:16;22.50;99.90
17172;DHT22;8701;50.150;8.756;2022-08-19T00:15:20;22.50;99.90
17172;DHT22;8701;50.150;8.756;2022-08-19T00:19:26;22.50;99.90
17172;DHT22;8701;50.150;8.756;2022-08-19T00:23:30;22.30;99.90
17172;DHT22;8701;50.150;8.756;2022-08-19T00:27:35;22.40;99.90
17172;DHT22;8701;50.150;8.756;2022-08-19T00:31:37;22.50;99.90
17172;DHT22;8701;50.150;8.756;2022-08-19T00:35:41;22.40;99.90
17172;DHT22;8701;50.150;8.756;2022-08-19T00:39:43;22.30;99.90
17172;DHT22;8701;50.150;8.756;2022-08-19T00:43:57;22.30;99.90
17172;DHT22;8701;50.150;8.756;2022-08-19T00:48:00;22.30;99.90
17172;DHT22;8701;50.150;8.756;2022-08-19T00:52:09;22.20;99.90
17172;DHT22;8701;50.150;8.756;2022-08-19T00:56:13;22.20;99.90
17172;DHT22;8701;50.150;8.756;2022-08-19T01:00:21;22.20;99.90
17172;DHT22;8701;50.150;8.756;2022-08-19T01:04:23;22.20;99.90
17172;DHT22;8701;50.150;8.756;2022-08-19T01:08:27;22.20;99.90
17172;DHT22;8701;50.150;8.756;2022-08-19T01:12:30;22.20;99.90
17172;DHT22;8701;50.150;8.756;2022-08-19T01:16:33;22.10;99.90
17172;DHT22;8701;50.150;8.756;2022-08-19T01:20:36;22.20;99.90
17172;DHT22;8701;50.150;8.756;2022-08-19T01:24:40;22.20;99.90
17172;DHT22;8701;50.150;8.756;2022-08-19T01:28:44;22.10;99.90
17172;DHT22;8701;50.150;8.756;2022-08-19T01:32:48;22.10;99.90
17172;DHT22;8701;50.150;8.756;2022-08-19T01:36:51;22.10;99.90
17172;DHT22;8701;50.150;8.756;2022-08-19T01:40:54;22.10;99.90
17172;DHT22;8701;50.150;8.756;2022-08-19T01:44:57;22.10;99.90
17172;DHT22;8701;50.150;8.756;2022-08-19T01:48:59;22.00;99.90
17172;DHT22;8701;50.150;8.756;2022-08-19T01:53:04;22.20;99.90
17172;DHT22;8701;50.150;8.756;2022-08-19T01:57:12;22.00;99.90
17172;DHT22;8701;50.150;8.756;2022-08-19T02:01:15;21.90;99.90
17172;DHT22;8701;50.150;8.756;2022-08-19T02:05:18;22.00;99.90
17172;DHT22;8701;50.150;8.756;2022-08-19T02:09:22;22.10;99.90
17172;DHT22;8701;50.150;8.756;2022-08-19T02:13:26;22.00;99.90
17172;DHT22;8701;50.150;8.756;2022-08-19T02:17:29;22.00;99.90
17172;DHT22;8701;50.150;8.756;2022-08-19T02:21:33;22.00;99.90
17172;DHT22;8701;50.150;8.756;2022-08-19T02:25:36;22.10;99.90
17172;DHT22;8701;50.150;8.756;2022-08-19T02:29:40;22.00;99.90
17172;DHT22;8701;50.150;8.756;2022-08-19T02:33:43;22.00;99.90
17172;DHT22;8701;50.150;8.756;2022-08-19T02:37:47;22.00;99.90
17172;DHT22;8701;50.150;8.756;2022-08-19T02:42:07;22.00;99.90
17172;DHT22;8701;50.150;8.756;2022-08-19T02:46:16;22.00;99.90
17172;DHT22;8701;50.150;8.756;2022-08-19T02:50:22;22.00;99.90
17172;DHT22;8701;50.150;8.756;2022-08-19T02:54:24;21.90;99.90
17172;DHT22;8701;50.150;8.756;2022-08-19T02:58:27;21.90;99.90
17172;DHT22;8701;50.150;8.756;2022-08-19T03:02:31;21.90;99.90
17172;DHT22;8701;50.150;8.756;2022-08-19T03:06:36;21.90;99.90
17172;DHT22;8701;50.150;8.756;2022-08-19T03:10:43;21.90;99.90
17172;DHT22;8701;50.150;8.756;2022-08-19T03:14:46;21.90;99.90
17172;DHT22;8701;50.150;8.756;2022-08-19T03:18:49;21.80;99.90
17172;DHT22;8701;50.150;8.756;2022-08-19T03:22:52;21.80;99.90
17172;DHT22;8701;50.150;8.756;2022-08-19T03:26:58;21.70;99.90
17172;DHT22;8701;50.150;8.756;2022-08-19T03:31:04;21.70;99.90
17172;DHT22;8701;50.150;8.756;2022-08-19T03:35:08;21.70;99.90
17172;DHT22;8701;50.150;8.756;2022-08-19T03:39:11;21.70;99.90
17172;DHT22;8701;50.150;8.756;2022-08-19T03:43:13;21.70;99.90
17172;DHT22;8701;50.150;8.756;2022-08-19T03:47:19;21.70;99.90
17172;DHT22;8701;50.150;8.756;2022-08-19T03:51:24;21.70;99.90
17172;DHT22;8701;50.150;8.756;2022-08-19T03:55:26;21.70;99.90
17172;DHT22;8701;50.150;8.756;2022-08-19T03:59:31;21.70;99.90
17172;DHT22;8701;50.150;8.756;2022-08-19T04:03:34;21.70;99.90
17172;DHT22;8701;50.150;8.756;2022-08-19T04:07:38;21.60;99.90
17172;DHT22;8701;50.150;8.756;2022-08-19T04:11:44;21.60;99.90
17172;DHT22;8701;50.150;8.756;2022-08-19T04:15:47;21.80;99.90
17172;DHT22;8701;50.150;8.756;2022-08-19T04:19:50;21.70;99.90
17172;DHT22;8701;50.150;8.756;2022-08-19T04:23:55;21.60;99.90
17172;DHT22;8701;50.150;8.756;2022-08-19T04:27:58;21.60;99.90
17172;DHT22;8701;50.150;8.756;2022-08-19T04:32:00;21.60;99.90
17172;DHT22;8701;50.150;8.756;2022-08-19T04:36:03;21.70;99.90
17172;DHT22;8701;50.150;8.756;2022-08-19T04:40:08;21.60;99.90
17172;DHT22;8701;50.150;8.756;2022-08-19T04:44:30;21.60;99.90
17172;DHT22;8701;50.150;8.756;2022-08-19T04:48:33;21.60;99.90
17172;DHT22;8701;50.150;8.756;2022-08-19T04:52:35;21.60;99.90
17172;DHT22;8701;50.150;8.756;2022-08-19T04:56:39;21.50;99.90
17172;DHT22;8701;50.150;8.756;2022-08-19T05:00:42;21.50;99.90
17172;DHT22;8701;50.150;8.756;2022-08-19T05:04:44;21.50;99.90
17172;DHT22;8701;50.150;8.756;2022-08-19T05:08:47;21.50;99.90
17172;DHT22;8701;50.150;8.756;2022-08-19T05:12:51;21.50;99.90
17172;DHT22;8701;50.150;8.756;2022-08-19T05:16:53;21.60;99.90
17172;DHT22;8701;50.150;8.756;2022-08-19T05:20:57;21.70;99.90
17172;DHT22;8701;50.150;8.756;2022-08-19T05:25:19;21.60;99.90
17172;DHT22;8701;50.150;8.756;2022-08-19T05:29:25;21.60;99.90
17172;DHT22;8701;50.150;8.756;2022-08-19T05:33:28;21.60;99.90
17172;DHT22;8701;50.150;8.756;2022-08-19T05:37:31;21.70;99.90
17172;DHT22;8701;50.150;8.756;2022-08-19T05:41:34;21.70;99.90
17172;DHT22;8701;50.150;8.756;2022-08-19T05:45:40;21.70;99.90
17172;DHT22;8701;50.150;8.756;2022-08-19T05:49:43;21.70;99.90
17172;DHT22;8701;50.150;8.756;2022-08-19T05:53:46;21.80;99.90
17172;DHT22;8701;50.150;8.756;2022-08-19T05:57:48;21.80;99.90
17172;DHT22;8701;50.150;8.756;2022-08-19T06:01:53;21.80;99.90
17172;DHT22;8701;50.150;8.756;2022-08-19T06:05:58;21.90;99.90
17172;DHT22;8701;50.150;8.756;2022-08-19T06:10:01;21.80;99.90
17172;DHT22;8701;50.150;8.756;2022-08-19T06:14:06;22.00;99.90
17172;DHT22;8701;50.150;8.756;2022-08-19T06:18:11;22.10;99.90
17172;DHT22;8701;50.150;8.756;2022-08-19T06:22:13;22.20;99.90
17172;DHT22;8701;50.150;8.756;2022-08-19T06:26:17;22.20;99.90
17172;DHT22;8701;50.150;8.756;2022-08-19T06:30:20;22.30;99.90
17172;DHT22;8701;50.150;8.756;2022-08-19T06:34:24;22.30;99.90
17172;DHT22;8701;50.150;8.756;2022-08-19T06:38:28;22.20;99.90
17172;DHT22;8701;50.150;8.756;2022-08-19T06:42:30;22.50;99.90
17172;DHT22;8701;50.150;8.756;2022-08-19T06:46:32;22.70;99.90
17172;DHT22;8701;50.150;8.756;2022-08-19T06:50:36;22.80;99.90
17172;DHT22;8701;50.150;8.756;2022-08-19T06:54:39;23.00;99.90
17172;DHT22;8701;50.150;8.756;2022-08-19T06:58:41;23.30;99.90
17172;DHT22;8701;50.150;8.756;2022-08-19T07:02:44;23.50;99.90
17172;DHT22;8701;50.150;8.756;2022-08-19T07:06:48;23.70;99.90
17172;DHT22;8701;50.150;8.756;2022-08-19T07:10:51;23.90;99.90
17172;DHT22;8701;50.150;8.756;2022-08-19T07:14:53;23.90;99.90
17172;DHT22;8701;50.150;8.756;2022-08-19T07:18:56;24.00;99.90
17172;DHT22;8701;50.150;8.756;2022-08-19T07:23:00;24.30;99.90
17172;DHT22;8701;50.150;8.756;2022-08-19T07:27:05;24.50;99.90
17172;DHT22;8701;50.150;8.756;2022-08-19T07:31:09;24.60;99.90
17172;DHT22;8701;50.150;8.756;2022-08-19T07:35:18;24.60;99.90
17172;DHT22;8701;50.150;8.756;2022-08-19T07:39:25;24.70;99.90
17172;DHT22;8701;50.150;8.756;2022-08-19T07:43:28;24.80;99.90
17172;DHT22;8701;50.150;8.756;2022-08-19T07:47:31;24.90;99.90
17172;DHT22;8701;50.150;8.756;2022-08-19T07:51:34;25.10;99.90
17172;DHT22;8701;50.150;8.756;2022-08-19T07:55:38;25.30;99.90
17172;DHT22;8701;50.150;8.756;2022-08-19T07:59:40;25.70;99.90
17172;DHT22;8701;50.150;8.756;2022-08-19T08:03:43;26.10;99.90
17172;DHT22;8701;50.150;8.756;2022-08-19T08:08:03;27.10;99.90
17172;DHT22;8701;50.150;8.756;2022-08-19T08:12:27;28.70;99.90
17172;DHT22;8701;50.150;8.756;2022-08-19T08:16:34;30.60;99.70
17172;DHT22;8701;50.150;8.756;2022-08-19T08:20:36;32.00;95.80
17172;DHT22;8701;50.150;8.756;2022-08-19T08:24:39;33.10;92.70
17172;DHT22;8701;50.150;8.756;2022-08-19T08:28:42;33.60;91.30
17172;DHT22;8701;50.150;8.756;2022-08-19T08:32:46;34.00;89.80
17172;DHT22;8701;50.150;8.756;2022-08-19T08:36:49;34.30;88.70
17172;DHT22;8701;50.150;8.756;2022-08-19T08:40:56;34.20;86.90
17172;DHT22;8701;50.150;8.756;2022-08-19T08:45:14;33.40;86.50
17172;DHT22;8701;50.150;8.756;2022-08-19T08:49:25;33.10;88.30
17172;DHT22;8701;50.150;8.756;2022-08-19T08:53:29;33.30;87.70
17172;DHT22;8701;50.150;8.756;2022-08-19T08:57:39;32.50;88.00
17172;DHT22;8701;50.150;8.756;2022-08-19T09:01:43;31.40;90.20
17172;DHT22;8701;50.150;8.756;2022-08-19T09:05:55;30.40;91.50
17172;DHT22;8701;50.150;8.756;2022-08-19T09:10:05;30.10;92.00
17172;DHT22;8701;50.150;8.756;2022-08-19T09:14:16;29.60;92.00
17172;DHT22;8701;50.150;8.756;2022-08-19T09:18:21;31.10;90.80
17172;DHT22;8701;50.150;8.756;2022-08-19T09:22:24;32.90;86.90
17172;DHT22;8701;50.150;8.756;2022-08-19T09:26:31;34.10;83.60
17172;DHT22;8701;50.150;8.756;2022-08-19T09:30:39;34.80;82.80
17172;DHT22;8701;50.150;8.756;2022-08-19T09:34:49;34.80;81.20
17172;DHT22;8701;50.150;8.756;2022-08-19T09:38:56;33.30;82.20
17172;DHT22;8701;50.150;8.756;2022-08-19T09:42:59;32.30;84.30
17172;DHT22;8701;50.150;8.756;2022-08-19T09:47:04;33.10;82.60
17172;DHT22;8701;50.150;8.756;2022-08-19T09:51:10;33.30;82.30
17172;DHT22;8701;50.150;8.756;2022-08-19T09:55:16;32.70;85.50
17172;DHT22;8701;50.150;8.756;2022-08-19T09:59:18;32.00;87.00
17172;DHT22;8701;50.150;8.756;2022-08-19T10:03:21;32.60;88.80
17172;DHT22;8701;50.150;8.756;2022-08-19T10:07:25;34.40;82.10
17172;DHT22;8701;50.150;8.756;2022-08-19T10:11:28;35.10;79.60
17172;DHT22;8701;50.150;8.756;2022-08-19T10:15:30;35.80;78.40
17172;DHT22;8701;50.150;8.756;2022-08-19T10:19:33;35.60;77.50
17172;DHT22;8701;50.150;8.756;2022-08-19T10:23:40;36.00;75.70
17172;DHT22;8701;50.150;8.756;2022-08-19T10:27:46;37.20;74.70
17172;DHT22;8701;50.150;8.756;2022-08-19T10:31:48;37.70;72.40
17172;DHT22;8701;50.150;8.756;2022-08-19T10:35:59;37.40;70.80
17172;DHT22;8701;50.150;8.756;2022-08-19T10:40:05;35.40;74.60
17172;DHT22;8701;50.150;8.756;2022-08-19T10:44:10;33.90;76.80
17172;DHT22;8701;50.150;8.756;2022-08-19T10:48:13;34.40;77.10
17172;DHT22;8701;50.150;8.756;2022-08-19T10:52:15;35.80;73.90
17172;DHT22;8701;50.150;8.756;2022-08-19T10:56:37;36.90;74.40
17172;DHT22;8701;50.150;8.756;2022-08-19T11:00:58;37.20;69.70
17172;DHT22;8701;50.150;8.756;2022-08-19T11:05:01;35.60;73.40
17172;DHT22;8701;50.150;8.756;2022-08-19T11:09:05;34.30;74.50
17172;DHT22;8701;50.150;8.756;2022-08-19T11:13:09;33.90;75.00
17172;DHT22;8701;50.150;8.756;2022-08-19T11:17:11;33.20;76.10
17172;DHT22;8701;50.150;8.756;2022-08-19T11:21:18;32.90;78.70
17172;DHT22;8701;50.150;8.756;2022-08-19T11:25:21;34.20;75.20
17172;DHT22;8701;50.150;8.756;2022-08-19T11:29:25;36.00;71.80
17172;DHT22;8701;50.150;8.756;2022-08-19T11:33:29;37.40;69.80
17172;DHT22;8701;50.150;8.756;2022-08-19T11:37:31;37.50;68.40
17172;DHT22;8701;50.150;8.756;2022-08-19T11:41:39;36.20;70.40
17172;DHT22;8701;50.150;8.756;2022-08-19T11:45:43;35.30;71.60
17172;DHT22;8701;50.150;8.756;2022-08-19T11:49:46;34.60;72.20
17172;DHT22;8701;50.150;8.756;2022-08-19T11:53:49;33.50;73.00
17172;DHT22;8701;50.150;8.756;2022-08-19T11:57:52;33.00;73.70
17172;DHT22;8701;50.150;8.756;2022-08-19T12:01:55;32.80;73.20
17172;DHT22;8701;50.150;8.756;2022-08-19T12:05:58;33.00;72.50
17172;DHT22;8701;50.150;8.756;2022-08-19T12:10:05;32.80;74.90
17172;DHT22;8701;50.150;8.756;2022-08-19T12:14:10;32.70;74.50
17172;DHT22;8701;50.150;8.756;2022-08-19T12:18:16;33.00;77.20
17172;DHT22;8701;50.150;8.756;2022-08-19T12:22:18;33.90;74.30
17172;DHT22;8701;50.150;8.756;2022-08-19T12:26:23;34.50;73.40
17172;DHT22;8701;50.150;8.756;2022-08-19T12:30:25;35.10;68.20
17172;DHT22;8701;50.150;8.756;2022-08-19T12:34:30;35.10;67.90
17172;DHT22;8701;50.150;8.756;2022-08-19T12:38:33;35.30;69.70
17172;DHT22;8701;50.150;8.756;2022-08-19T12:42:36;35.20;68.00
17172;DHT22;8701;50.150;8.756;2022-08-19T12:46:39;34.60;67.60
17172;DHT22;8701;50.150;8.756;2022-08-19T12:50:44;34.70;66.70
17172;DHT22;8701;50.150;8.756;2022-08-19T12:54:47;34.70;65.40
17172;DHT22;8701;50.150;8.756;2022-08-19T12:58:50;34.60;66.90
17172;DHT22;8701;50.150;8.756;2022-08-19T13:02:53;34.90;69.20
17172;DHT22;8701;50.150;8.756;2022-08-19T13:07:00;35.00;70.70
17172;DHT22;8701;50.150;8.756;2022-08-19T13:11:11;34.70;65.60
17172;DHT22;8701;50.150;8.756;2022-08-19T13:15:18;34.60;67.10
17172;DHT22;8701;50.150;8.756;2022-08-19T13:19:21;34.70;67.70
17172;DHT22;8701;50.150;8.756;2022-08-19T13:23:26;34.80;69.00
17172;DHT22;8701;50.150;8.756;2022-08-19T13:27:29;35.00;65.50
17172;DHT22;8701;50.150;8.756;2022-08-19T13:31:33;35.00;67.70
17172;DHT22;8701;50.150;8.756;2022-08-19T13:35:57;34.70;68.20
17172;DHT22;8701;50.150;8.756;2022-08-19T13:40:03;34.10;71.20
17172;DHT22;8701;50.150;8.756;2022-08-19T13:44:06;33.80;68.00
17172;DHT22;8701;50.150;8.756;2022-08-19T13:48:09;33.50;68.30
17172;DHT22;8701;50.150;8.756;2022-08-19T13:52:11;33.00;68.10
17172;DHT22;8701;50.150;8.756;2022-08-19T13:56:17;32.70;70.70
17172;DHT22;8701;50.150;8.756;2022-08-19T14:00:21;32.40;70.50
17172;DHT22;8701;50.150;8.756;2022-08-19T14:04:25;32.10;71.70
17172;DHT22;8701;50.150;8.756;2022-08-19T14:08:28;32.20;71.60
17172;DHT22;8701;50.150;8.756;2022-08-19T14:12:35;32.20;72.80
17172;DHT22;8701;50.150;8.756;2022-08-19T14:16:38;32.00;70.20
17172;DHT22;8701;50.150;8.756;2022-08-19T14:20:40;32.00;73.80
17172;DHT22;8701;50.150;8.756;2022-08-19T14:24:42;31.80;69.60
17172;DHT22;8701;50.150;8.756;2022-08-19T14:28:47;32.00;73.20
17172;DHT22;8701;50.150;8.756;2022-08-19T14:32:50;32.30;72.10
17172;DHT22;8701;50.150;8.756;2022-08-19T14:36:52;32.40;68.90
17172;DHT22;8701;50.150;8.756;2022-08-19T14:40:55;32.50;74.30
17172;DHT22;8701;50.150;8.756;2022-08-19T14:45:00;32.60;70.60
17172;DHT22;8701;50.150;8.756;2022-08-19T14:49:02;32.60;69.50
17172;DHT22;8701;50.150;8.756;2022-08-19T14:53:07;32.80;72.70
17172;DHT22;8701;50.150;8.756;2022-08-19T14:57:12;32.50;67.40
17172;DHT22;8701;50.150;8.756;2022-08-19T15:01:17;32.40;71.20
17172;DHT22;8701;50.150;8.756;2022-08-19T15:05:21;32.20;71.80
17172;DHT22;8701;50.150;8.756;2022-08-19T15:09:24;32.10;73.80
17172;DHT22;8701;50.150;8.756;2022-08-19T15:13:27;31.80;68.40
17172;DHT22;8701;50.150;8.756;2022-08-19T15:17:31;31.70;74.80
17172;DHT22;8701;50.150;8.756;2022-08-19T15:21:38;31.60;72.50
17172;DHT22;8701;50.150;8.756;2022-08-19T15:25:40;31.50;71.50
17172;DHT22;8701;50.150;8.756;2022-08-19T15:29:44;31.40;73.30
17172;DHT22;8701;50.150;8.756;2022-08-19T15:33:48;31.80;72.30
17172;DHT22;8701;50.150;8.756;2022-08-19T15:37:52;31.50;71.90
17172;DHT22;8701;50.150;8.756;2022-08-19T15:41:55;31.50;73.10
17172;DHT22;8701;50.150;8.756;2022-08-19T15:45:57;31.70;72.10
17172;DHT22;8701;50.150;8.756;2022-08-19T15:50:04;31.40;71.10
17172;DHT22;8701;50.150;8.756;2022-08-19T15:54:09;31.20;72.80
17172;DHT22;8701;50.150;8.756;2022-08-19T15:58:15;31.20;71.40
17172;DHT22;8701;50.150;8.756;2022-08-19T16:02:35;31.10;73.80
17172;DHT22;8701;50.150;8.756;2022-08-19T16:06:57;31.00;69.40
17172;DHT22;8701;50.150;8.756;2022-08-19T16:11:00;30.90;75.20
17172;DHT22;8701;50.150;8.756;2022-08-19T16:15:04;30.80;70.30
17172;DHT22;8701;50.150;8.756;2022-08-19T16:19:11;30.70;73.00
17172;DHT22;8701;50.150;8.756;2022-08-19T16:23:17;30.60;74.20
17172;DHT22;8701;50.150;8.756;2022-08-19T16:27:19;30.50;76.10
17172;DHT22;8701;50.150;8.756;2022-08-19T16:31:23;30.50;76.60
17172;DHT22;8701;50.150;8.756;2022-08-19T16:35:25;30.30;70.90
17172;DHT22;8701;50.150;8.756;2022-08-19T16:39:29;30.30;75.60
17172;DHT22;8701;50.150;8.756;2022-08-19T16:43:32;30.20;75.40
17172;DHT22;8701;50.150;8.756;2022-08-19T16:47:34;30.10;69.70
17172;DHT22;8701;50.150;8.756;2022-08-19T16:51:38;30.00;71.50
17172;DHT22;8701;50.150;8.756;2022-08-19T16:55:43;29.90;75.60
17172;DHT22;8701;50.150;8.756;2022-08-19T16:59:47;29.90;76.00
17172;DHT22;8701;50.150;8.756;2022-08-19T17:03:52;29.90;76.50
17172;DHT22;8701;50.150;8.756;2022-08-19T17:07:55;29.70;74.20
17172;DHT22;8701;50.150;8.756;2022-08-19T17:11:59;29.60;74.80
17172;DHT22;8701;50.150;8.756;2022-08-19T17:16:01;29.50;77.60
17172;DHT22;8701;50.150;8.756;2022-08-19T17:20:05;29.40;76.70
17172;DHT22;8701;50.150;8.756;2022-08-19T17:24:08;29.40;76.80
17172;DHT22;8701;50.150;8.756;2022-08-19T17:28:19;29.40;75.00
17172;DHT22;8701;50.150;8.756;2022-08-19T17:32:21;29.30;75.50
17172;DHT22;8701;50.150;8.756;2022-08-19T17:36:26;29.30;71.90
17172;DHT22;8701;50.150;8.756;2022-08-19T17:40:48;29.20;76.30
17172;DHT22;8701;50.150;8.756;2022-08-19T17:44:52;29.10;73.20
17172;DHT22;8701;50.150;8.756;2022-08-19T17:48:58;29.10;77.20
17172;DHT22;8701;50.150;8.756;2022-08-19T17:53:01;29.00;76.40
17172;DHT22;8701;50.150;8.756;2022-08-19T17:57:04;28.90;76.30
17172;DHT22;8701;50.150;8.756;2022-08-19T18:01:09;28.70;73.90
17172;DHT22;8701;50.150;8.756;2022-08-19T18:05:11;28.70;76.00
17172;DHT22;8701;50.150;8.756;2022-08-19T18:09:15;28.60;76.80
17172;DHT22;8701;50.150;8.756;2022-08-19T18:13:17;28.50;77.20
17172;DHT22;8701;50.150;8.756;2022-08-19T18:17:21;28.50;79.40
17172;DHT22;8701;50.150;8.756;2022-08-19T18:21:24;28.40;79.00
17172;DHT22;8701;50.150;8.756;2022-08-19T18:25:31;28.30;74.20
17172;DHT22;8701;50.150;8.756;2022-08-19T18:29:34;28.20;79.70
17172;DHT22;8701;50.150;8.756;2022-08-19T18:33:39;28.30;78.90
17172;DHT22;8701;50.150;8.756;2022-08-19T18:37:45;28.00;78.50
17172;DHT22;8701;50.150;8.756;2022-08-19T18:41:48;28.00;79.70
17172;DHT22;8701;50.150;8.756;2022-08-19T18:46:07;28.00;79.70
17172;DHT22;8701;50.150;8.756;2022-08-19T18:50:34;27.80;79.70
17172;DHT22;8701;50.150;8.756;2022-08-19T18:54:38;27.80;79.20
17172;DHT22;8701;50.150;8.756;2022-08-19T18:58:42;27.70;78.90
17172;DHT22;8701;50.150;8.756;2022-08-19T19:02:44;27.60;78.80
17172;DHT22;8701;50.150;8.756;2022-08-19T19:06:49;27.60;80.60
17172;DHT22;8701;50.150;8.756;2022-08-19T19:10:51;27.30;79.70
17172;DHT22;8701;50.150;8.756;2022-08-19T19:14:54;27.30;80.80
17172;DHT22;8701;50.150;8.756;2022-08-19T19:18:58;27.10;81.20
17172;DHT22;8701;50.150;8.756;2022-08-19T19:23:02;27.00;80.20
17172;DHT22;8701;50.150;8.756;2022-08-19T19:27:05;26.90;79.10
17172;DHT22;8701;50.150;8.756;2022-08-19T19:31:12;26.90;79.00
17172;DHT22;8701;50.150;8.756;2022-08-19T19:35:16;26.90;79.00
17172;DHT22;8701;50.150;8.756;2022-08-19T19:39:20;27.10;79.30
17172;DHT22;8701;50.150;8.756;2022-08-19T19:43:22;26.70;81.00
17172;DHT22;8701;50.150;8.756;2022-08-19T19:47:25;26.60;79.50
17172;DHT22;8701;50.150;8.756;2022-08-19T19:51:28;26.70;80.10
17172;DHT22;8701;50.150;8.756;2022-08-19T19:55:32;26.40;80.20
17172;DHT22;8701;50.150;8.756;2022-08-19T20:10:23;26.40;80.30
17172;DHT22;8701;50.150;8.756;2022-08-19T20:14:38;26.10;80.70
17172;DHT22;8701;50.150;8.756;2022-08-19T20:18:43;26.10;80.30
17172;DHT22;8701;50.150;8.756;2022-08-19T20:22:46;26.10;80.40
17172;DHT22;8701;50.150;8.756;2022-08-19T20:26:48;26.00;81.40
17172;DHT22;8701;50.150;8.756;2022-08-19T20:30:52;25.90;81.60
17172;DHT22;8701;50.150;8.756;2022-08-19T20:35:16;25.80;81.40
17172;DHT22;8701;50.150;8.756;2022-08-19T20:39:20;25.70;81.80
17172;DHT22;8701;50.150;8.756;2022-08-19T20:43:25;25.60;81.70
17172;DHT22;8701;50.150;8.756;2022-08-19T20:47:32;25.60;82.90
17172;DHT22;8701;50.150;8.756;2022-08-19T20:51:36;25.50;82.30
17172;DHT22;8701;50.150;8.756;2022-08-19T20:55:41;25.40;82.60
17172;DHT22;8701;50.150;8.756;2022-08-19T20:59:45;25.40;82.60
17172;DHT22;8701;50.150;8.756;2022-08-19T21:03:49;25.30;83.30
17172;DHT22;8701;50.150;8.756;2022-08-19T21:07:52;25.20;83.50
17172;DHT22;8701;50.150;8.756;2022-08-19T21:11:54;25.20;83.80
17172;DHT22;8701;50.150;8.756;2022-08-19T21:15:57;25.00;83.80
17172;DHT22;8701;50.150;8.756;2022-08-19T21:20:02;25.00;84.60
17172;DHT22;8701;50.150;8.756;2022-08-19T21:24:06;24.90;84.90
17172;DHT22;8701;50.150;8.756;2022-08-19T21:28:10;24.90;84.50
17172;DHT22;8701;50.150;8.756;2022-08-19T21:32:12;24.90;85.00
17172;DHT22;8701;50.150;8.756;2022-08-19T21:36:16;24.70;85.10
17172;DHT22;8701;50.150;8.756;2022-08-19T21:40:20;24.70;85.40
17172;DHT22;8701;50.150;8.756;2022-08-19T21:44:22;24.60;86.20
17172;DHT22;8701;50.150;8.756;2022-08-19T21:48:24;24.50;86.10
17172;DHT22;8701;50.150;8.756;2022-08-19T21:52:30;24.50;86.20
17172;DHT22;8701;50.150;8.756;2022-08-19T21:56:33;24.50;86.60
17172;DHT22;8701;50.150;8.756;2022-08-19T22:00:40;24.40;86.60
17172;DHT22;8701;50.150;8.756;2022-08-19T22:04:42;24.50;87.10
17172;DHT22;8701;50.150;8.756;2022-08-19T22:08:46;24.30;87.20
17172;DHT22;8701;50.150;8.756;2022-08-19T22:12:48;24.20;87.50
17172;DHT22;8701;50.150;8.756;2022-08-19T22:16:51;24.10;88.20
17172;DHT22;8701;50.150;8.756;2022-08-19T22:20:54;24.00;89.50
17172;DHT22;8701;50.150;8.756;2022-08-19T22:25:06;24.00;89.30
17172;DHT22;8701;50.150;8.756;2022-08-19T22:29:13;23.90;89.50
17172;DHT22;8701;50.150;8.756;2022-08-19T22:33:17;23.90;89.50
17172;DHT22;8701;50.150;8.756;2022-08-19T22:37:20;24.00;90.10
17172;DHT22;8701;50.150;8.756;2022-08-19T22:41:26;24.00;90.20
17172;DHT22;8701;50.150;8.756;2022-08-19T22:45:29;23.90;90.40
17172;DHT22;8701;50.150;8.756;2022-08-19T22:49:31;24.10;90.80
17172;DHT22;8701;50.150;8.756;2022-08-19T22:53:40;23.90;90.80
17172;DHT22;8701;50.150;8.756;2022-08-19T22:57:46;23.80;91.00
17172;DHT22;8701;50.150;8.756;2022-08-19T23:01:51;23.90;91.20
17172;DHT22;8701;50.150;8.756;2022-08-19T23:05:53;23.90;91.50
17172;DHT22;8701;50.150;8.756;2022-08-19T23:09:56;23.90;91.70
17172;DHT22;8701;50.150;8.756;2022-08-19T23:14:00;23.90;91.90
17172;DHT22;8701;50.150;8.756;2022-08-19T23:18:03;23.90;92.20
17172;DHT22;8701;50.150;8.756;2022-08-19T23:22:06;23.90;92.70
17172;DHT22;8701;50.150;8.756;2022-08-19T23:26:10;23.80;92.40
17172;DHT22;8701;50.150;8.756;2022-08-19T23:30:14;23.70;92.70
17172;DHT22;8701;50.150;8.756;2022-08-19T23:34:28;23.80;92.70
17172;DHT22;8701;50.150;8.756;2022-08-19T23:38:31;23.70;93.10
17172;DHT22;8701;50.150;8.756;2022-08-19T23:42:33;23.60;93.20
17172;DHT22;8701;50.150;8.756;2022-08-19T23:46:40;23.60;93.50
17172;DHT22;8701;50.150;8.756;2022-08-19T23:50:44;23.60;93.80
17172;DHT22;8701;50.150;8.756;2022-08-19T23:54:47;23.60;94.60
17172;DHT22;8701;50.150;8.756;2022-08-19T23:58:49;23.50;95.10
